sensor_id;sensor_type;location;lat;lon;timestamp;P1;durP1;ratioP1;P2;durP2;ratioP2
69047;SDS011;56119;50.118;8.642;2024-03-23T00:55:28;30.45;;;22.00;;
69047;SDS011;56119;50.118;8.642;2024-03-23T00:57:54;28.80;;;20.35;;
69047;SDS011;56119;50.118;8.642;2024-03-23T01:00:20;29.75;;;22.13;;
69047;SDS011;56119;50.118;8.642;2024-03-23T01:02:46;25.35;;;19.33;;
69047;SDS011;56119;50.118;8.642;2024-03-23T01:05:12;30.02;;;20.38;;
69047;SDS011;56119;50.118;8.642;2024-03-23T01:07:38;26.90;;;19.85;;
69047;SDS011;56119;50.118;8.642;2024-03-23T01:10:04;26.55;;;19.52;;
69047;SDS011;56119;50.118;8.642;2024-03-23T01:12:30;25.75;;;19.80;;
69047;SDS011;56119;50.118;8.642;2024-03-23T01:14:56;27.25;;;19.95;;
69047;SDS011;56119;50.118;8.642;2024-03-23T01:17:22;25.42;;;19.95;;
69047;SDS011;56119;50.118;8.642;2024-03-23T01:19:48;26.08;;;19.67;;
69047;SDS011;56119;50.118;8.642;2024-03-23T01:22:14;27.25;;;19.73;;
69047;SDS011;56119;50.118;8.642;2024-03-23T01:24:40;25.80;;;19.50;;
69047;SDS011;56119;50.118;8.642;2024-03-23T01:27:06;23.85;;;19.00;;
69047;SDS011;56119;50.118;8.642;2024-03-23T01:29:32;27.33;;;19.60;;
69047;SDS011;56119;50.118;8.642;2024-03-23T01:31:58;26.95;;;19.08;;
69047;SDS011;56119;50.118;8.642;2024-03-23T01:34:24;26.40;;;19.40;;
69047;SDS011;56119;50.118;8.642;2024-03-23T01:36:50;30.00;;;19.38;;
69047;SDS011;56119;50.118;8.642;2024-03-23T01:39:16;27.88;;;20.00;;
69047;SDS011;56119;50.118;8.642;2024-03-23T01:41:42;30.42;;;20.83;;
69047;SDS011;56119;50.118;8.642;2024-03-23T01:44:08;23.20;;;18.63;;
69047;SDS011;56119;50.118;8.642;2024-03-23T01:46:35;25.80;;;20.63;;
69047;SDS011;56119;50.118;8.642;2024-03-23T01:49:01;25.05;;;19.40;;
69047;SDS011;56119;50.118;8.642;2024-03-23T01:51:27;25.60;;;19.08;;
69047;SDS011;56119;50.118;8.642;2024-03-23T01:53:54;28.45;;;20.50;;
69047;SDS011;56119;50.118;8.642;2024-03-23T01:56:20;26.85;;;20.40;;
69047;SDS011;56119;50.118;8.642;2024-03-23T01:58:46;26.58;;;20.83;;
69047;SDS011;56119;50.118;8.642;2024-03-23T02:01:12;26.27;;;20.77;;
69047;SDS011;56119;50.118;8.642;2024-03-23T02:03:38;27.25;;;20.50;;
69047;SDS011;56119;50.118;8.642;2024-03-23T02:06:04;25.48;;;20.40;;
69047;SDS011;56119;50.118;8.642;2024-03-23T02:08:32;29.77;;;20.58;;
69047;SDS011;56119;50.118;8.642;2024-03-23T02:10:58;26.13;;;19.98;;
69047;SDS011;56119;50.118;8.642;2024-03-23T02:13:24;25.23;;;20.15;;
69047;SDS011;56119;50.118;8.642;2024-03-23T02:15:50;25.05;;;20.52;;
69047;SDS011;56119;50.118;8.642;2024-03-23T02:18:16;29.20;;;20.33;;
69047;SDS011;56119;50.118;8.642;2024-03-23T02:20:42;28.80;;;20.30;;
69047;SDS011;56119;50.118;8.642;2024-03-23T02:23:15;30.67;;;20.92;;
69047;SDS011;56119;50.118;8.642;2024-03-23T02:25:41;28.67;;;20.50;;
69047;SDS011;56119;50.118;8.642;2024-03-23T02:28:07;27.92;;;20.85;;
69047;SDS011;56119;50.118;8.642;2024-03-23T02:30:33;25.75;;;20.40;;
69047;SDS011;56119;50.118;8.642;2024-03-23T02:32:59;27.63;;;20.30;;
69047;SDS011;56119;50.118;8.642;2024-03-23T02:35:25;25.77;;;20.63;;
69047;SDS011;56119;50.118;8.642;2024-03-23T02:37:51;25.65;;;20.33;;
69047;SDS011;56119;50.118;8.642;2024-03-23T02:40:18;29.30;;;20.05;;
69047;SDS011;56119;50.118;8.642;2024-03-23T02:42:44;30.75;;;19.75;;
69047;SDS011;56119;50.118;8.642;2024-03-23T02:45:10;25.50;;;20.70;;
69047;SDS011;56119;50.118;8.642;2024-03-23T02:47:36;28.55;;;20.27;;
69047;SDS011;56119;50.118;8.642;2024-03-23T02:50:02;32.03;;;20.33;;
69047;SDS011;56119;50.118;8.642;2024-03-23T02:52:29;29.73;;;20.95;;
69047;SDS011;56119;50.118;8.642;2024-03-23T02:54:55;29.73;;;21.70;;
69047;SDS011;56119;50.118;8.642;2024-03-23T02:57:21;28.48;;;21.42;;
69047;SDS011;56119;50.118;8.642;2024-03-23T02:59:47;28.52;;;21.33;;
69047;SDS011;56119;50.118;8.642;2024-03-23T03:02:13;31.17;;;21.45;;
69047;SDS011;56119;50.118;8.642;2024-03-23T03:04:39;27.25;;;21.13;;
69047;SDS011;56119;50.118;8.642;2024-03-23T03:07:05;26.75;;;21.45;;
69047;SDS011;56119;50.118;8.642;2024-03-23T03:09:31;33.28;;;22.52;;
69047;SDS011;56119;50.118;8.642;2024-03-23T03:11:58;27.13;;;20.20;;
69047;SDS011;56119;50.118;8.642;2024-03-23T03:14:24;28.63;;;20.70;;
69047;SDS011;56119;50.118;8.642;2024-03-23T03:16:49;24.45;;;20.30;;
69047;SDS011;56119;50.118;8.642;2024-03-23T03:19:15;29.83;;;20.10;;
69047;SDS011;56119;50.118;8.642;2024-03-23T03:21:42;28.23;;;21.50;;
69047;SDS011;56119;50.118;8.642;2024-03-23T03:24:08;26.13;;;19.73;;
69047;SDS011;56119;50.118;8.642;2024-03-23T03:26:34;32.30;;;21.13;;
69047;SDS011;56119;50.118;8.642;2024-03-23T03:29:00;29.35;;;21.48;;
69047;SDS011;56119;50.118;8.642;2024-03-23T03:31:26;28.98;;;22.00;;
69047;SDS011;56119;50.118;8.642;2024-03-23T03:33:52;26.23;;;20.20;;
69047;SDS011;56119;50.118;8.642;2024-03-23T03:36:18;28.65;;;20.48;;
69047;SDS011;56119;50.118;8.642;2024-03-23T03:38:45;29.48;;;21.20;;
69047;SDS011;56119;50.118;8.642;2024-03-23T03:41:11;26.35;;;21.13;;
69047;SDS011;56119;50.118;8.642;2024-03-23T03:43:37;26.80;;;21.10;;
69047;SDS011;56119;50.118;8.642;2024-03-23T03:46:03;29.20;;;21.40;;
69047;SDS011;56119;50.118;8.642;2024-03-23T03:48:29;32.47;;;22.40;;
69047;SDS011;56119;50.118;8.642;2024-03-23T03:50:55;33.63;;;22.05;;
69047;SDS011;56119;50.118;8.642;2024-03-23T03:53:21;31.27;;;21.80;;
69047;SDS011;56119;50.118;8.642;2024-03-23T03:55:47;28.33;;;21.35;;
69047;SDS011;56119;50.118;8.642;2024-03-23T03:58:13;31.38;;;22.73;;
69047;SDS011;56119;50.118;8.642;2024-03-23T04:00:39;30.67;;;21.65;;
69047;SDS011;56119;50.118;8.642;2024-03-23T04:03:05;32.15;;;22.67;;
69047;SDS011;56119;50.118;8.642;2024-03-23T04:05:31;36.00;;;23.33;;
69047;SDS011;56119;50.118;8.642;2024-03-23T04:07:57;36.63;;;23.25;;
69047;SDS011;56119;50.118;8.642;2024-03-23T04:10:23;37.40;;;24.95;;
69047;SDS011;56119;50.118;8.642;2024-03-23T04:12:50;40.13;;;22.35;;
69047;SDS011;56119;50.118;8.642;2024-03-23T04:15:16;40.92;;;25.15;;
69047;SDS011;56119;50.118;8.642;2024-03-23T04:17:41;40.20;;;25.08;;
69047;SDS011;56119;50.118;8.642;2024-03-23T04:20:08;37.42;;;23.75;;
69047;SDS011;56119;50.118;8.642;2024-03-23T04:22:36;28.33;;;17.10;;
69047;SDS011;56119;50.118;8.642;2024-03-23T04:25:02;19.98;;;10.25;;
69047;SDS011;56119;50.118;8.642;2024-03-23T04:27:32;10.15;;;5.85;;
69047;SDS011;56119;50.118;8.642;2024-03-23T04:29:57;11.13;;;5.50;;
69047;SDS011;56119;50.118;8.642;2024-03-23T04:32:26;9.63;;;5.57;;
69047;SDS011;56119;50.118;8.642;2024-03-23T04:34:52;4.93;;;3.25;;
69047;SDS011;56119;50.118;8.642;2024-03-23T04:37:18;5.20;;;2.53;;
69047;SDS011;56119;50.118;8.642;2024-03-23T04:39:44;3.88;;;2.10;;
69047;SDS011;56119;50.118;8.642;2024-03-23T04:42:10;2.40;;;1.40;;
69047;SDS011;56119;50.118;8.642;2024-03-23T04:44:37;2.45;;;1.50;;
69047;SDS011;56119;50.118;8.642;2024-03-23T04:47:03;2.40;;;1.60;;
69047;SDS011;56119;50.118;8.642;2024-03-23T04:49:30;2.33;;;1.50;;
69047;SDS011;56119;50.118;8.642;2024-03-23T04:51:56;1.70;;;1.33;;
69047;SDS011;56119;50.118;8.642;2024-03-23T04:54:22;2.55;;;1.27;;
69047;SDS011;56119;50.118;8.642;2024-03-23T04:56:48;1.15;;;0.90;;
69047;SDS011;56119;50.118;8.642;2024-03-23T04:59:14;1.50;;;0.60;;
69047;SDS011;56119;50.118;8.642;2024-03-23T05:01:40;1.63;;;0.90;;
69047;SDS011;56119;50.118;8.642;2024-03-23T05:04:07;1.13;;;0.82;;
69047;SDS011;56119;50.118;8.642;2024-03-23T05:06:33;1.33;;;0.80;;
69047;SDS011;56119;50.118;8.642;2024-03-23T05:09:00;2.20;;;0.80;;
69047;SDS011;56119;50.118;8.642;2024-03-23T05:11:33;1.15;;;0.70;;
69047;SDS011;56119;50.118;8.642;2024-03-23T05:13:59;2.40;;;1.25;;
69047;SDS011;56119;50.118;8.642;2024-03-23T05:16:25;1.63;;;1.10;;
69047;SDS011;56119;50.118;8.642;2024-03-23T05:18:51;2.20;;;1.27;;
69047;SDS011;56119;50.118;8.642;2024-03-23T05:21:17;1.80;;;1.23;;
69047;SDS011;56119;50.118;8.642;2024-03-23T05:23:43;2.80;;;1.30;;
69047;SDS011;56119;50.118;8.642;2024-03-23T05:26:10;3.08;;;1.35;;
69047;SDS011;56119;50.118;8.642;2024-03-23T05:28:36;1.85;;;1.42;;
69047;SDS011;56119;50.118;8.642;2024-03-23T05:31:02;2.95;;;1.50;;
69047;SDS011;56119;50.118;8.642;2024-03-23T05:33:28;2.17;;;1.42;;
69047;SDS011;56119;50.118;8.642;2024-03-23T05:35:58;2.38;;;1.77;;
69047;SDS011;56119;50.118;8.642;2024-03-23T05:38:24;1.35;;;1.23;;
69047;SDS011;56119;50.118;8.642;2024-03-23T05:40:53;4.78;;;1.50;;
69047;SDS011;56119;50.118;8.642;2024-03-23T05:43:20;1.77;;;1.20;;
69047;SDS011;56119;50.118;8.642;2024-03-23T05:45:46;2.13;;;1.55;;
69047;SDS011;56119;50.118;8.642;2024-03-23T05:48:12;2.88;;;1.38;;
69047;SDS011;56119;50.118;8.642;2024-03-23T05:50:38;3.40;;;2.17;;
69047;SDS011;56119;50.118;8.642;2024-03-23T05:53:04;4.05;;;2.40;;
69047;SDS011;56119;50.118;8.642;2024-03-23T05:55:30;3.35;;;2.08;;
69047;SDS011;56119;50.118;8.642;2024-03-23T05:57:57;3.83;;;2.60;;
69047;SDS011;56119;50.118;8.642;2024-03-23T06:00:23;4.13;;;2.63;;
69047;SDS011;56119;50.118;8.642;2024-03-23T06:02:51;3.38;;;2.13;;
69047;SDS011;56119;50.118;8.642;2024-03-23T06:05:17;3.10;;;1.65;;
69047;SDS011;56119;50.118;8.642;2024-03-23T06:07:43;3.10;;;1.50;;
69047;SDS011;56119;50.118;8.642;2024-03-23T06:10:09;1.95;;;1.45;;
69047;SDS011;56119;50.118;8.642;2024-03-23T06:12:35;2.40;;;1.48;;
69047;SDS011;56119;50.118;8.642;2024-03-23T06:15:01;1.88;;;1.17;;
69047;SDS011;56119;50.118;8.642;2024-03-23T06:17:26;1.73;;;1.02;;
69047;SDS011;56119;50.118;8.642;2024-03-23T06:19:52;1.05;;;0.80;;
69047;SDS011;56119;50.118;8.642;2024-03-23T06:22:18;0.98;;;0.80;;
69047;SDS011;56119;50.118;8.642;2024-03-23T06:24:45;2.67;;;0.82;;
69047;SDS011;56119;50.118;8.642;2024-03-23T06:27:11;1.17;;;0.77;;
69047;SDS011;56119;50.118;8.642;2024-03-23T06:29:37;0.50;;;0.50;;
69047;SDS011;56119;50.118;8.642;2024-03-23T06:32:03;0.80;;;0.45;;
69047;SDS011;56119;50.118;8.642;2024-03-23T06:34:29;0.40;;;0.40;;
69047;SDS011;56119;50.118;8.642;2024-03-23T06:36:55;0.63;;;0.52;;
69047;SDS011;56119;50.118;8.642;2024-03-23T06:39:21;0.73;;;0.30;;
69047;SDS011;56119;50.118;8.642;2024-03-23T06:41:53;0.20;;;0.20;;
69047;SDS011;56119;50.118;8.642;2024-03-23T06:44:20;0.50;;;0.22;;
69047;SDS011;56119;50.118;8.642;2024-03-23T06:46:46;0.30;;;0.30;;
69047;SDS011;56119;50.118;8.642;2024-03-23T06:49:13;0.55;;;0.43;;
69047;SDS011;56119;50.118;8.642;2024-03-23T06:51:40;0.30;;;0.30;;
69047;SDS011;56119;50.118;8.642;2024-03-23T06:54:06;0.60;;;0.40;;
69047;SDS011;56119;50.118;8.642;2024-03-23T06:56:32;0.47;;;0.45;;
69047;SDS011;56119;50.118;8.642;2024-03-23T06:58:59;3.88;;;0.70;;
69047;SDS011;56119;50.118;8.642;2024-03-23T07:01:25;1.13;;;0.70;;
69047;SDS011;56119;50.118;8.642;2024-03-23T07:03:51;2.83;;;0.70;;
69047;SDS011;56119;50.118;8.642;2024-03-23T07:06:17;2.97;;;0.70;;
69047;SDS011;56119;50.118;8.642;2024-03-23T07:08:42;2.58;;;0.70;;
69047;SDS011;56119;50.118;8.642;2024-03-23T07:11:08;2.00;;;0.95;;
69047;SDS011;56119;50.118;8.642;2024-03-23T07:13:34;2.13;;;1.20;;
69047;SDS011;56119;50.118;8.642;2024-03-23T07:16:00;1.55;;;0.70;;
69047;SDS011;56119;50.118;8.642;2024-03-23T07:18:26;1.40;;;0.80;;
69047;SDS011;56119;50.118;8.642;2024-03-23T07:20:56;2.00;;;0.85;;
69047;SDS011;56119;50.118;8.642;2024-03-23T07:23:22;1.63;;;0.80;;
69047;SDS011;56119;50.118;8.642;2024-03-23T07:26:04;3.15;;;1.10;;
69047;SDS011;56119;50.118;8.642;2024-03-23T07:28:30;3.40;;;1.20;;
69047;SDS011;56119;50.118;8.642;2024-03-23T07:31:04;6.53;;;1.10;;
69047;SDS011;56119;50.118;8.642;2024-03-23T07:33:30;2.88;;;1.50;;
69047;SDS011;56119;50.118;8.642;2024-03-23T07:35:56;5.72;;;1.42;;
69047;SDS011;56119;50.118;8.642;2024-03-23T07:38:23;6.35;;;1.83;;
69047;SDS011;56119;50.118;8.642;2024-03-23T07:40:49;6.75;;;1.85;;
69047;SDS011;56119;50.118;8.642;2024-03-23T07:43:20;5.20;;;1.85;;
69047;SDS011;56119;50.118;8.642;2024-03-23T07:45:51;5.88;;;1.67;;
69047;SDS011;56119;50.118;8.642;2024-03-23T07:48:20;4.72;;;1.85;;
69047;SDS011;56119;50.118;8.642;2024-03-23T07:50:55;6.20;;;1.75;;
69047;SDS011;56119;50.118;8.642;2024-03-23T07:53:21;6.05;;;2.08;;
69047;SDS011;56119;50.118;8.642;2024-03-23T07:55:54;10.93;;;2.35;;
69047;SDS011;56119;50.118;8.642;2024-03-23T07:58:20;7.50;;;2.45;;
69047;SDS011;56119;50.118;8.642;2024-03-23T08:00:46;5.32;;;2.47;;
69047;SDS011;56119;50.118;8.642;2024-03-23T08:03:12;6.13;;;2.45;;
69047;SDS011;56119;50.118;8.642;2024-03-23T08:05:38;9.43;;;3.95;;
69047;SDS011;56119;50.118;8.642;2024-03-23T08:08:04;7.47;;;4.18;;
69047;SDS011;56119;50.118;8.642;2024-03-23T08:10:30;8.52;;;4.20;;
69047;SDS011;56119;50.118;8.642;2024-03-23T08:12:56;11.60;;;5.03;;
69047;SDS011;56119;50.118;8.642;2024-03-23T08:15:22;10.85;;;5.00;;
69047;SDS011;56119;50.118;8.642;2024-03-23T08:17:48;8.88;;;4.88;;
69047;SDS011;56119;50.118;8.642;2024-03-23T08:20:15;13.07;;;5.43;;
69047;SDS011;56119;50.118;8.642;2024-03-23T08:22:40;11.93;;;5.45;;
69047;SDS011;56119;50.118;8.642;2024-03-23T08:25:07;13.25;;;6.03;;
69047;SDS011;56119;50.118;8.642;2024-03-23T08:27:33;11.00;;;6.40;;
69047;SDS011;56119;50.118;8.642;2024-03-23T08:29:58;9.88;;;6.05;;
69047;SDS011;56119;50.118;8.642;2024-03-23T08:32:24;13.77;;;6.10;;
69047;SDS011;56119;50.118;8.642;2024-03-23T08:34:50;10.10;;;5.70;;
69047;SDS011;56119;50.118;8.642;2024-03-23T08:37:16;8.43;;;5.95;;
69047;SDS011;56119;50.118;8.642;2024-03-23T08:39:45;9.77;;;5.50;;
69047;SDS011;56119;50.118;8.642;2024-03-23T08:42:11;12.65;;;6.10;;
69047;SDS011;56119;50.118;8.642;2024-03-23T08:44:37;10.55;;;6.50;;
69047;SDS011;56119;50.118;8.642;2024-03-23T08:47:03;13.25;;;5.75;;
69047;SDS011;56119;50.118;8.642;2024-03-23T08:49:29;10.68;;;5.60;;
69047;SDS011;56119;50.118;8.642;2024-03-23T08:51:55;10.45;;;5.35;;
69047;SDS011;56119;50.118;8.642;2024-03-23T08:54:21;12.43;;;4.80;;
69047;SDS011;56119;50.118;8.642;2024-03-23T08:56:48;9.23;;;4.50;;
69047;SDS011;56119;50.118;8.642;2024-03-23T08:59:14;8.43;;;3.80;;
69047;SDS011;56119;50.118;8.642;2024-03-23T09:01:40;15.15;;;4.63;;
69047;SDS011;56119;50.118;8.642;2024-03-23T09:04:06;11.05;;;4.03;;
69047;SDS011;56119;50.118;8.642;2024-03-23T09:06:32;11.80;;;3.90;;
69047;SDS011;56119;50.118;8.642;2024-03-23T09:08:58;9.00;;;3.97;;
69047;SDS011;56119;50.118;8.642;2024-03-23T09:11:24;8.82;;;4.18;;
69047;SDS011;56119;50.118;8.642;2024-03-23T09:13:49;8.23;;;3.90;;
69047;SDS011;56119;50.118;8.642;2024-03-23T09:16:15;9.73;;;4.55;;
69047;SDS011;56119;50.118;8.642;2024-03-23T09:18:41;8.27;;;4.43;;
69047;SDS011;56119;50.118;8.642;2024-03-23T09:21:11;12.52;;;4.50;;
69047;SDS011;56119;50.118;8.642;2024-03-23T09:23:43;8.25;;;4.07;;
69047;SDS011;56119;50.118;8.642;2024-03-23T09:26:09;11.10;;;4.50;;
69047;SDS011;56119;50.118;8.642;2024-03-23T09:28:35;8.50;;;3.70;;
69047;SDS011;56119;50.118;8.642;2024-03-23T09:31:04;10.57;;;4.53;;
69047;SDS011;56119;50.118;8.642;2024-03-23T09:33:30;11.35;;;4.45;;
69047;SDS011;56119;50.118;8.642;2024-03-23T09:35:56;10.23;;;4.05;;
69047;SDS011;56119;50.118;8.642;2024-03-23T09:38:22;9.07;;;3.83;;
69047;SDS011;56119;50.118;8.642;2024-03-23T09:40:50;14.93;;;4.45;;
69047;SDS011;56119;50.118;8.642;2024-03-23T09:43:18;12.95;;;4.13;;
69047;SDS011;56119;50.118;8.642;2024-03-23T09:45:44;10.38;;;3.80;;
69047;SDS011;56119;50.118;8.642;2024-03-23T09:48:10;11.57;;;3.97;;
69047;SDS011;56119;50.118;8.642;2024-03-23T09:50:40;11.10;;;3.85;;
69047;SDS011;56119;50.118;8.642;2024-03-23T09:53:06;11.13;;;3.70;;
69047;SDS011;56119;50.118;8.642;2024-03-23T09:55:32;12.98;;;3.85;;
69047;SDS011;56119;50.118;8.642;2024-03-23T09:57:59;13.10;;;3.55;;
69047;SDS011;56119;50.118;8.642;2024-03-23T10:00:25;8.05;;;3.10;;
69047;SDS011;56119;50.118;8.642;2024-03-23T10:02:51;9.15;;;3.20;;
69047;SDS011;56119;50.118;8.642;2024-03-23T10:05:19;12.13;;;3.75;;
69047;SDS011;56119;50.118;8.642;2024-03-23T10:07:46;11.60;;;3.53;;
69047;SDS011;56119;50.118;8.642;2024-03-23T10:10:12;10.35;;;3.33;;
69047;SDS011;56119;50.118;8.642;2024-03-23T10:12:43;11.20;;;3.08;;
69047;SDS011;56119;50.118;8.642;2024-03-23T10:15:15;11.05;;;2.75;;
69047;SDS011;56119;50.118;8.642;2024-03-23T10:17:43;10.43;;;2.80;;
69047;SDS011;56119;50.118;8.642;2024-03-23T10:20:10;10.00;;;2.63;;
69047;SDS011;56119;50.118;8.642;2024-03-23T10:22:39;9.38;;;3.08;;
69047;SDS011;56119;50.118;8.642;2024-03-23T10:25:08;9.55;;;2.83;;
69047;SDS011;56119;50.118;8.642;2024-03-23T10:27:34;10.25;;;2.50;;
69047;SDS011;56119;50.118;8.642;2024-03-23T10:30:13;7.55;;;2.10;;
69047;SDS011;56119;50.118;8.642;2024-03-23T10:32:40;7.03;;;1.67;;
69047;SDS011;56119;50.118;8.642;2024-03-23T10:37:41;6.68;;;2.20;;
69047;SDS011;56119;50.118;8.642;2024-03-23T10:40:09;8.45;;;2.30;;
69047;SDS011;56119;50.118;8.642;2024-03-23T10:42:35;8.40;;;2.28;;
69047;SDS011;56119;50.118;8.642;2024-03-23T10:45:03;8.52;;;2.25;;
69047;SDS011;56119;50.118;8.642;2024-03-23T10:47:29;7.93;;;2.08;;
69047;SDS011;56119;50.118;8.642;2024-03-23T10:49:55;6.15;;;2.20;;
69047;SDS011;56119;50.118;8.642;2024-03-23T10:52:21;8.75;;;2.25;;
69047;SDS011;56119;50.118;8.642;2024-03-23T10:54:47;9.02;;;2.28;;
69047;SDS011;56119;50.118;8.642;2024-03-23T10:57:21;8.05;;;2.30;;
69047;SDS011;56119;50.118;8.642;2024-03-23T10:59:47;6.90;;;2.28;;
69047;SDS011;56119;50.118;8.642;2024-03-23T11:02:20;3.95;;;1.05;;
69047;SDS011;56119;50.118;8.642;2024-03-23T11:04:46;9.75;;;1.95;;
69047;SDS011;56119;50.118;8.642;2024-03-23T11:07:29;9.13;;;1.90;;
69047;SDS011;56119;50.118;8.642;2024-03-23T11:09:56;6.63;;;1.80;;
69047;SDS011;56119;50.118;8.642;2024-03-23T11:14:48;7.05;;;1.58;;
69047;SDS011;56119;50.118;8.642;2024-03-23T11:17:18;3.38;;;1.45;;
69047;SDS011;56119;50.118;8.642;2024-03-23T11:19:44;5.22;;;2.25;;
69047;SDS011;56119;50.118;8.642;2024-03-23T11:22:10;4.10;;;2.10;;
69047;SDS011;56119;50.118;8.642;2024-03-23T11:24:36;11.25;;;2.65;;
69047;SDS011;56119;50.118;8.642;2024-03-23T11:27:05;8.68;;;2.92;;
69047;SDS011;56119;50.118;8.642;2024-03-23T11:29:41;6.75;;;2.05;;
69047;SDS011;56119;50.118;8.642;2024-03-23T11:32:07;6.47;;;1.63;;
69047;SDS011;56119;50.118;8.642;2024-03-23T11:34:38;8.20;;;1.65;;
69047;SDS011;56119;50.118;8.642;2024-03-23T11:37:04;8.95;;;1.90;;
69047;SDS011;56119;50.118;8.642;2024-03-23T11:39:31;10.27;;;2.67;;
69047;SDS011;56119;50.118;8.642;2024-03-23T11:41:57;10.77;;;2.97;;
69047;SDS011;56119;50.118;8.642;2024-03-23T11:44:24;6.00;;;2.50;;
69047;SDS011;56119;50.118;8.642;2024-03-23T11:46:51;6.85;;;2.80;;
69047;SDS011;56119;50.118;8.642;2024-03-23T11:49:23;6.40;;;2.47;;
69047;SDS011;56119;50.118;8.642;2024-03-23T11:51:49;6.03;;;2.55;;
69047;SDS011;56119;50.118;8.642;2024-03-23T11:54:15;8.93;;;3.00;;
69047;SDS011;56119;50.118;8.642;2024-03-23T11:56:53;5.93;;;2.75;;
69047;SDS011;56119;50.118;8.642;2024-03-23T11:59:38;10.18;;;3.05;;
69047;SDS011;56119;50.118;8.642;2024-03-23T12:02:08;8.65;;;2.72;;
69047;SDS011;56119;50.118;8.642;2024-03-23T12:04:35;7.55;;;2.90;;
69047;SDS011;56119;50.118;8.642;2024-03-23T12:07:18;8.43;;;3.30;;
69047;SDS011;56119;50.118;8.642;2024-03-23T12:09:44;10.00;;;3.00;;
69047;SDS011;56119;50.118;8.642;2024-03-23T12:12:14;10.30;;;3.13;;
69047;SDS011;56119;50.118;8.642;2024-03-23T12:14:41;8.80;;;3.28;;
69047;SDS011;56119;50.118;8.642;2024-03-23T12:17:08;7.80;;;2.97;;
69047;SDS011;56119;50.118;8.642;2024-03-23T12:19:34;8.55;;;3.45;;
69047;SDS011;56119;50.118;8.642;2024-03-23T12:22:00;9.73;;;3.35;;
69047;SDS011;56119;50.118;8.642;2024-03-23T12:24:26;9.27;;;3.83;;
69047;SDS011;56119;50.118;8.642;2024-03-23T12:26:52;9.90;;;3.75;;
69047;SDS011;56119;50.118;8.642;2024-03-23T12:29:18;8.85;;;3.05;;
69047;SDS011;56119;50.118;8.642;2024-03-23T12:31:45;7.07;;;3.13;;
69047;SDS011;56119;50.118;8.642;2024-03-23T12:34:11;7.55;;;3.03;;
69047;SDS011;56119;50.118;8.642;2024-03-23T12:36:37;4.15;;;2.60;;
69047;SDS011;56119;50.118;8.642;2024-03-23T12:39:03;10.88;;;3.08;;
69047;SDS011;56119;50.118;8.642;2024-03-23T12:41:29;6.45;;;2.20;;
69047;SDS011;56119;50.118;8.642;2024-03-23T12:43:58;6.85;;;2.08;;
69047;SDS011;56119;50.118;8.642;2024-03-23T12:46:24;7.47;;;2.65;;
69047;SDS011;56119;50.118;8.642;2024-03-23T12:48:50;6.95;;;2.88;;
69047;SDS011;56119;50.118;8.642;2024-03-23T12:51:16;8.68;;;2.90;;
69047;SDS011;56119;50.118;8.642;2024-03-23T12:53:42;7.32;;;3.00;;
69047;SDS011;56119;50.118;8.642;2024-03-23T12:56:11;8.05;;;3.35;;
69047;SDS011;56119;50.118;8.642;2024-03-23T12:58:37;10.10;;;2.75;;
69047;SDS011;56119;50.118;8.642;2024-03-23T13:01:03;6.30;;;2.95;;
69047;SDS011;56119;50.118;8.642;2024-03-23T13:03:31;10.05;;;2.88;;
69047;SDS011;56119;50.118;8.642;2024-03-23T13:05:57;6.68;;;3.33;;
69047;SDS011;56119;50.118;8.642;2024-03-23T13:08:23;8.18;;;2.92;;
69047;SDS011;56119;50.118;8.642;2024-03-23T13:10:54;7.45;;;2.67;;
69047;SDS011;56119;50.118;8.642;2024-03-23T13:13:20;5.43;;;2.38;;
69047;SDS011;56119;50.118;8.642;2024-03-23T13:15:50;8.10;;;2.40;;
69047;SDS011;56119;50.118;8.642;2024-03-23T13:18:16;7.38;;;1.60;;
69047;SDS011;56119;50.118;8.642;2024-03-23T13:20:44;2.08;;;1.00;;
69047;SDS011;56119;50.118;8.642;2024-03-23T13:23:10;4.20;;;0.88;;
69047;SDS011;56119;50.118;8.642;2024-03-23T13:25:36;4.38;;;0.68;;
69047;SDS011;56119;50.118;8.642;2024-03-23T13:28:06;2.33;;;0.85;;
69047;SDS011;56119;50.118;8.642;2024-03-23T13:30:32;2.85;;;1.08;;
69047;SDS011;56119;50.118;8.642;2024-03-23T13:32:58;3.03;;;1.02;;
69047;SDS011;56119;50.118;8.642;2024-03-23T13:35:24;2.97;;;1.38;;
69047;SDS011;56119;50.118;8.642;2024-03-23T13:37:50;3.03;;;1.13;;
69047;SDS011;56119;50.118;8.642;2024-03-23T13:40:22;3.20;;;1.23;;
69047;SDS011;56119;50.118;8.642;2024-03-23T13:42:50;4.55;;;1.40;;
69047;SDS011;56119;50.118;8.642;2024-03-23T13:45:16;1.52;;;1.00;;
69047;SDS011;56119;50.118;8.642;2024-03-23T13:47:51;1.75;;;0.90;;
69047;SDS011;56119;50.118;8.642;2024-03-23T13:50:17;1.35;;;0.63;;
69047;SDS011;56119;50.118;8.642;2024-03-23T13:52:43;2.90;;;1.00;;
69047;SDS011;56119;50.118;8.642;2024-03-23T13:55:09;1.10;;;0.90;;
69047;SDS011;56119;50.118;8.642;2024-03-23T13:57:39;3.38;;;0.98;;
69047;SDS011;56119;50.118;8.642;2024-03-23T14:00:07;4.03;;;1.20;;
69047;SDS011;56119;50.118;8.642;2024-03-23T14:02:38;1.88;;;1.00;;
69047;SDS011;56119;50.118;8.642;2024-03-23T14:05:07;2.60;;;1.15;;
69047;SDS011;56119;50.118;8.642;2024-03-23T14:07:36;4.32;;;1.23;;
69047;SDS011;56119;50.118;8.642;2024-03-23T14:10:05;1.73;;;0.82;;
69047;SDS011;56119;50.118;8.642;2024-03-23T14:12:31;1.80;;;0.95;;
69047;SDS011;56119;50.118;8.642;2024-03-23T14:14:58;1.02;;;0.80;;
69047;SDS011;56119;50.118;8.642;2024-03-23T14:17:24;2.22;;;0.80;;
69047;SDS011;56119;50.118;8.642;2024-03-23T14:19:51;2.42;;;1.02;;
69047;SDS011;56119;50.118;8.642;2024-03-23T14:22:17;3.60;;;1.45;;
69047;SDS011;56119;50.118;8.642;2024-03-23T14:24:44;2.15;;;0.90;;
69047;SDS011;56119;50.118;8.642;2024-03-23T14:27:10;1.75;;;1.00;;
69047;SDS011;56119;50.118;8.642;2024-03-23T14:29:36;3.17;;;1.38;;
69047;SDS011;56119;50.118;8.642;2024-03-23T14:32:02;4.68;;;1.25;;
69047;SDS011;56119;50.118;8.642;2024-03-23T14:34:28;4.72;;;1.35;;
69047;SDS011;56119;50.118;8.642;2024-03-23T14:36:54;3.15;;;0.88;;
69047;SDS011;56119;50.118;8.642;2024-03-23T14:39:23;3.30;;;0.90;;
69047;SDS011;56119;50.118;8.642;2024-03-23T14:41:50;2.97;;;0.98;;
69047;SDS011;56119;50.118;8.642;2024-03-23T14:44:16;2.30;;;1.00;;
69047;SDS011;56119;50.118;8.642;2024-03-23T14:46:42;3.15;;;1.05;;
69047;SDS011;56119;50.118;8.642;2024-03-23T14:49:08;1.75;;;0.90;;
69047;SDS011;56119;50.118;8.642;2024-03-23T14:51:35;1.35;;;0.90;;
69047;SDS011;56119;50.118;8.642;2024-03-23T14:54:01;1.15;;;0.90;;
69047;SDS011;56119;50.118;8.642;2024-03-23T14:56:27;1.73;;;0.65;;
69047;SDS011;56119;50.118;8.642;2024-03-23T14:58:53;3.20;;;0.88;;
69047;SDS011;56119;50.118;8.642;2024-03-23T15:01:21;1.77;;;0.82;;
69047;SDS011;56119;50.118;8.642;2024-03-23T15:03:47;1.27;;;0.50;;
69047;SDS011;56119;50.118;8.642;2024-03-23T15:06:13;2.40;;;0.80;;
69047;SDS011;56119;50.118;8.642;2024-03-23T15:08:39;4.20;;;0.90;;
69047;SDS011;56119;50.118;8.642;2024-03-23T15:11:06;2.97;;;0.75;;
69047;SDS011;56119;50.118;8.642;2024-03-23T15:13:32;2.65;;;0.90;;
69047;SDS011;56119;50.118;8.642;2024-03-23T15:15:58;2.05;;;0.90;;
69047;SDS011;56119;50.118;8.642;2024-03-23T15:18:24;2.50;;;0.90;;
69047;SDS011;56119;50.118;8.642;2024-03-23T15:20:54;2.38;;;0.90;;
69047;SDS011;56119;50.118;8.642;2024-03-23T15:23:20;5.88;;;0.82;;
69047;SDS011;56119;50.118;8.642;2024-03-23T15:25:53;2.05;;;1.10;;
69047;SDS011;56119;50.118;8.642;2024-03-23T15:28:19;3.65;;;1.00;;
69047;SDS011;56119;50.118;8.642;2024-03-23T15:30:45;2.72;;;0.93;;
69047;SDS011;56119;50.118;8.642;2024-03-23T15:33:11;2.85;;;0.95;;
69047;SDS011;56119;50.118;8.642;2024-03-23T15:35:37;2.78;;;0.90;;